sensor_id;sensor_type;location;lat;lon;timestamp;P1;durP1;ratioP1;P2;durP2;ratioP2
1128;SDS011;553;51.038;7.216;2023-12-04T00:01:59;20.52;;;11.77;;
1128;SDS011;553;51.038;7.216;2023-12-04T00:04:27;17.35;;;10.35;;
1128;SDS011;553;51.038;7.216;2023-12-04T00:06:54;36.60;;;12.70;;
1128;SDS011;553;51.038;7.216;2023-12-04T00:09:20;25.75;;;10.93;;
1128;SDS011;553;51.038;7.216;2023-12-04T00:11:50;19.65;;;11.25;;
1128;SDS011;553;51.038;7.216;2023-12-04T00:14:17;20.30;;;10.27;;
1128;SDS011;553;51.038;7.216;2023-12-04T00:16:44;22.60;;;12.48;;
1128;SDS011;553;51.038;7.216;2023-12-04T00:19:10;23.73;;;12.77;;
1128;SDS011;553;51.038;7.216;2023-12-04T00:21:38;23.58;;;11.93;;
1128;SDS011;553;51.038;7.216;2023-12-04T00:24:04;24.65;;;11.15;;
1128;SDS011;553;51.038;7.216;2023-12-04T00:26:31;19.55;;;10.45;;
1128;SDS011;553;51.038;7.216;2023-12-04T00:28:58;17.42;;;9.95;;
1128;SDS011;553;51.038;7.216;2023-12-04T00:31:25;18.77;;;9.82;;
1128;SDS011;553;51.038;7.216;2023-12-04T00:33:52;18.00;;;9.60;;
1128;SDS011;553;51.038;7.216;2023-12-04T00:36:19;16.83;;;9.13;;
1128;SDS011;553;51.038;7.216;2023-12-04T00:38:46;16.25;;;9.80;;
1128;SDS011;553;51.038;7.216;2023-12-04T00:41:13;21.90;;;9.90;;
1128;SDS011;553;51.038;7.216;2023-12-04T00:43:40;18.10;;;10.52;;
1128;SDS011;553;51.038;7.216;2023-12-04T00:46:07;17.00;;;10.10;;
1128;SDS011;553;51.038;7.216;2023-12-04T00:48:33;17.50;;;10.00;;
1128;SDS011;553;51.038;7.216;2023-12-04T00:51:01;16.05;;;9.57;;
1128;SDS011;553;51.038;7.216;2023-12-04T00:53:28;19.27;;;11.27;;
1128;SDS011;553;51.038;7.216;2023-12-04T00:55:55;15.43;;;9.63;;
1128;SDS011;553;51.038;7.216;2023-12-04T00:58:22;19.13;;;10.18;;
1128;SDS011;553;51.038;7.216;2023-12-04T01:00:49;19.30;;;9.40;;
1128;SDS011;553;51.038;7.216;2023-12-04T01:03:18;19.75;;;9.85;;
1128;SDS011;553;51.038;7.216;2023-12-04T01:05:45;19.80;;;9.75;;
1128;SDS011;553;51.038;7.216;2023-12-04T01:08:12;19.30;;;10.55;;
1128;SDS011;553;51.038;7.216;2023-12-04T01:10:39;17.98;;;9.85;;
1128;SDS011;553;51.038;7.216;2023-12-04T01:13:06;21.20;;;10.15;;
1128;SDS011;553;51.038;7.216;2023-12-04T01:15:33;17.38;;;9.95;;
1128;SDS011;553;51.038;7.216;2023-12-04T01:17:59;17.02;;;9.73;;
1128;SDS011;553;51.038;7.216;2023-12-04T01:20:29;15.60;;;9.50;;
1128;SDS011;553;51.038;7.216;2023-12-04T01:22:56;16.92;;;8.88;;
1128;SDS011;553;51.038;7.216;2023-12-04T01:25:23;19.75;;;10.43;;
1128;SDS011;553;51.038;7.216;2023-12-04T01:27:49;15.10;;;9.20;;
1128;SDS011;553;51.038;7.216;2023-12-04T01:30:16;15.27;;;9.52;;
1128;SDS011;553;51.038;7.216;2023-12-04T01:32:43;13.25;;;9.07;;
1128;SDS011;553;51.038;7.216;2023-12-04T01:35:10;18.35;;;10.82;;
1128;SDS011;553;51.038;7.216;2023-12-04T01:37:37;16.67;;;9.95;;
1128;SDS011;553;51.038;7.216;2023-12-04T01:40:05;17.98;;;9.68;;
1128;SDS011;553;51.038;7.216;2023-12-04T01:42:33;18.02;;;9.20;;
1128;SDS011;553;51.038;7.216;2023-12-04T01:45:00;20.63;;;11.30;;
1128;SDS011;553;51.038;7.216;2023-12-04T01:47:27;15.85;;;9.55;;
1128;SDS011;553;51.038;7.216;2023-12-04T01:49:55;18.42;;;9.50;;
1128;SDS011;553;51.038;7.216;2023-12-04T01:52:22;19.23;;;9.52;;
1128;SDS011;553;51.038;7.216;2023-12-04T01:54:49;15.85;;;9.13;;
1128;SDS011;553;51.038;7.216;2023-12-04T01:57:16;15.77;;;9.93;;
1128;SDS011;553;51.038;7.216;2023-12-04T01:59:43;18.00;;;10.27;;
1128;SDS011;553;51.038;7.216;2023-12-04T02:02:11;20.73;;;10.18;;
1128;SDS011;553;51.038;7.216;2023-12-04T02:04:38;15.35;;;9.75;;
1128;SDS011;553;51.038;7.216;2023-12-04T02:07:05;15.85;;;9.25;;
1128;SDS011;553;51.038;7.216;2023-12-04T02:09:32;18.13;;;10.55;;
1128;SDS011;553;51.038;7.216;2023-12-04T02:11:59;13.25;;;7.90;;
1128;SDS011;553;51.038;7.216;2023-12-04T02:14:26;16.95;;;9.23;;
1128;SDS011;553;51.038;7.216;2023-12-04T02:16:53;15.55;;;8.75;;
1128;SDS011;553;51.038;7.216;2023-12-04T02:19:22;18.05;;;10.15;;
1128;SDS011;553;51.038;7.216;2023-12-04T02:21:49;12.60;;;7.97;;
1128;SDS011;553;51.038;7.216;2023-12-04T02:24:16;15.38;;;9.48;;
1128;SDS011;553;51.038;7.216;2023-12-04T02:26:47;18.00;;;9.15;;
1128;SDS011;553;51.038;7.216;2023-12-04T02:29:31;20.40;;;9.75;;
1128;SDS011;553;51.038;7.216;2023-12-04T02:32:04;16.83;;;9.70;;
1128;SDS011;553;51.038;7.216;2023-12-04T02:34:32;16.55;;;9.25;;
1128;SDS011;553;51.038;7.216;2023-12-04T02:37:01;14.63;;;9.05;;
1128;SDS011;553;51.038;7.216;2023-12-04T02:39:29;18.27;;;9.68;;
1128;SDS011;553;51.038;7.216;2023-12-04T02:41:56;16.88;;;9.43;;
1128;SDS011;553;51.038;7.216;2023-12-04T02:44:23;16.38;;;9.40;;
1128;SDS011;553;51.038;7.216;2023-12-04T02:46:50;17.45;;;8.85;;
1128;SDS011;553;51.038;7.216;2023-12-04T02:49:16;17.35;;;9.35;;
1128;SDS011;553;51.038;7.216;2023-12-04T02:51:46;16.38;;;9.60;;
1128;SDS011;553;51.038;7.216;2023-12-04T02:54:14;20.90;;;10.02;;
1128;SDS011;553;51.038;7.216;2023-12-04T02:56:42;15.88;;;9.60;;
1128;SDS011;553;51.038;7.216;2023-12-04T02:59:08;18.58;;;9.23;;
1128;SDS011;553;51.038;7.216;2023-12-04T03:01:35;15.27;;;8.23;;
1128;SDS011;553;51.038;7.216;2023-12-04T03:04:02;16.45;;;9.35;;
1128;SDS011;553;51.038;7.216;2023-12-04T03:06:29;16.17;;;9.40;;
1128;SDS011;553;51.038;7.216;2023-12-04T03:08:56;16.90;;;9.43;;
1128;SDS011;553;51.038;7.216;2023-12-04T03:11:25;14.48;;;8.45;;
1128;SDS011;553;51.038;7.216;2023-12-04T03:13:52;15.48;;;9.07;;
1128;SDS011;553;51.038;7.216;2023-12-04T03:16:19;11.40;;;6.40;;
1128;SDS011;553;51.038;7.216;2023-12-04T03:18:46;15.98;;;8.23;;
1128;SDS011;553;51.038;7.216;2023-12-04T03:21:13;15.95;;;7.85;;
1128;SDS011;553;51.038;7.216;2023-12-04T03:23:39;13.13;;;8.27;;
1128;SDS011;553;51.038;7.216;2023-12-04T03:26:06;14.60;;;8.20;;
1128;SDS011;553;51.038;7.216;2023-12-04T03:28:33;14.85;;;8.70;;
1128;SDS011;553;51.038;7.216;2023-12-04T03:31:00;14.43;;;7.95;;
1128;SDS011;553;51.038;7.216;2023-12-04T03:33:27;13.02;;;7.07;;
1128;SDS011;553;51.038;7.216;2023-12-04T03:35:55;14.35;;;8.35;;
1128;SDS011;553;51.038;7.216;2023-12-04T03:38:22;12.68;;;8.02;;
1128;SDS011;553;51.038;7.216;2023-12-04T03:40:48;14.75;;;7.15;;
1128;SDS011;553;51.038;7.216;2023-12-04T03:43:15;15.82;;;8.90;;
1128;SDS011;553;51.038;7.216;2023-12-04T03:45:42;15.52;;;7.28;;
1128;SDS011;553;51.038;7.216;2023-12-04T03:48:09;16.52;;;8.73;;
1128;SDS011;553;51.038;7.216;2023-12-04T03:50:35;13.48;;;7.25;;
1128;SDS011;553;51.038;7.216;2023-12-04T03:53:02;14.65;;;8.60;;
1128;SDS011;553;51.038;7.216;2023-12-04T03:55:29;17.15;;;8.55;;
1128;SDS011;553;51.038;7.216;2023-12-04T03:57:57;16.67;;;8.80;;
1128;SDS011;553;51.038;7.216;2023-12-04T04:00:25;15.27;;;8.25;;
1128;SDS011;553;51.038;7.216;2023-12-04T04:02:52;15.88;;;8.48;;
1128;SDS011;553;51.038;7.216;2023-12-04T04:05:19;17.63;;;9.10;;
1128;SDS011;553;51.038;7.216;2023-12-04T04:07:46;17.58;;;9.05;;
1128;SDS011;553;51.038;7.216;2023-12-04T04:10:13;19.45;;;9.75;;
1128;SDS011;553;51.038;7.216;2023-12-04T04:12:40;18.23;;;9.82;;
1128;SDS011;553;51.038;7.216;2023-12-04T04:15:07;14.23;;;8.43;;
1128;SDS011;553;51.038;7.216;2023-12-04T04:17:34;13.65;;;8.38;;
1128;SDS011;553;51.038;7.216;2023-12-04T04:20:01;15.95;;;7.72;;
1128;SDS011;553;51.038;7.216;2023-12-04T04:22:28;17.52;;;9.50;;
1128;SDS011;553;51.038;7.216;2023-12-04T04:24:55;17.27;;;9.73;;
1128;SDS011;553;51.038;7.216;2023-12-04T04:27:23;14.38;;;8.27;;
1128;SDS011;553;51.038;7.216;2023-12-04T04:29:50;16.23;;;10.05;;
1128;SDS011;553;51.038;7.216;2023-12-04T04:32:17;19.33;;;10.25;;
1128;SDS011;553;51.038;7.216;2023-12-04T04:34:44;16.60;;;10.23;;
1128;SDS011;553;51.038;7.216;2023-12-04T04:37:11;18.33;;;9.38;;
1128;SDS011;553;51.038;7.216;2023-12-04T04:39:39;14.75;;;8.55;;
1128;SDS011;553;51.038;7.216;2023-12-04T04:42:06;17.83;;;9.07;;
1128;SDS011;553;51.038;7.216;2023-12-04T04:44:32;18.13;;;10.10;;
1128;SDS011;553;51.038;7.216;2023-12-04T04:46:59;18.70;;;10.10;;
1128;SDS011;553;51.038;7.216;2023-12-04T04:49:27;18.45;;;10.68;;
1128;SDS011;553;51.038;7.216;2023-12-04T04:51:53;15.45;;;10.32;;
1128;SDS011;553;51.038;7.216;2023-12-04T04:54:20;18.10;;;9.23;;
1128;SDS011;553;51.038;7.216;2023-12-04T04:56:47;15.15;;;8.80;;
1128;SDS011;553;51.038;7.216;2023-12-04T04:59:14;19.45;;;9.10;;
1128;SDS011;553;51.038;7.216;2023-12-04T05:01:41;17.95;;;9.55;;
1128;SDS011;553;51.038;7.216;2023-12-04T05:04:07;18.73;;;9.95;;
1128;SDS011;553;51.038;7.216;2023-12-04T05:06:35;20.38;;;10.25;;
1128;SDS011;553;51.038;7.216;2023-12-04T05:09:02;20.77;;;10.82;;
1128;SDS011;553;51.038;7.216;2023-12-04T05:11:29;17.58;;;9.57;;
1128;SDS011;553;51.038;7.216;2023-12-04T05:13:55;22.05;;;9.68;;
1128;SDS011;553;51.038;7.216;2023-12-04T05:16:22;15.50;;;9.93;;
1128;SDS011;553;51.038;7.216;2023-12-04T05:18:49;19.02;;;9.98;;
1128;SDS011;553;51.038;7.216;2023-12-04T05:21:15;16.25;;;8.95;;
1128;SDS011;553;51.038;7.216;2023-12-04T05:23:42;16.63;;;9.15;;
1128;SDS011;553;51.038;7.216;2023-12-04T05:26:09;14.38;;;9.05;;
1128;SDS011;553;51.038;7.216;2023-12-04T05:28:36;15.68;;;7.82;;
1128;SDS011;553;51.038;7.216;2023-12-04T05:31:03;15.45;;;8.93;;
1128;SDS011;553;51.038;7.216;2023-12-04T05:33:30;14.85;;;9.40;;
1128;SDS011;553;51.038;7.216;2023-12-04T05:35:59;14.77;;;8.98;;
1128;SDS011;553;51.038;7.216;2023-12-04T05:38:26;14.95;;;8.57;;
1128;SDS011;553;51.038;7.216;2023-12-04T05:40:53;15.70;;;8.50;;
1128;SDS011;553;51.038;7.216;2023-12-04T05:43:21;16.70;;;9.73;;
1128;SDS011;553;51.038;7.216;2023-12-04T05:45:47;17.40;;;10.30;;
1128;SDS011;553;51.038;7.216;2023-12-04T05:48:18;14.98;;;8.73;;
1128;SDS011;553;51.038;7.216;2023-12-04T05:50:45;17.33;;;9.98;;
1128;SDS011;553;51.038;7.216;2023-12-04T05:53:11;17.38;;;9.82;;
1128;SDS011;553;51.038;7.216;2023-12-04T05:55:38;16.02;;;9.27;;
1128;SDS011;553;51.038;7.216;2023-12-04T05:58:05;16.85;;;9.75;;
1128;SDS011;553;51.038;7.216;2023-12-04T06:00:32;14.88;;;8.85;;
1128;SDS011;553;51.038;7.216;2023-12-04T06:02:59;14.48;;;8.48;;
1128;SDS011;553;51.038;7.216;2023-12-04T06:05:26;17.40;;;8.65;;
1128;SDS011;553;51.038;7.216;2023-12-04T06:07:53;14.77;;;9.40;;
1128;SDS011;553;51.038;7.216;2023-12-04T06:10:20;15.60;;;8.40;;
1128;SDS011;553;51.038;7.216;2023-12-04T06:12:47;18.48;;;10.50;;
1128;SDS011;553;51.038;7.216;2023-12-04T06:15:14;16.05;;;8.82;;
1128;SDS011;553;51.038;7.216;2023-12-04T06:17:41;19.83;;;9.35;;
1128;SDS011;553;51.038;7.216;2023-12-04T06:20:07;14.90;;;8.93;;
1128;SDS011;553;51.038;7.216;2023-12-04T06:22:35;17.33;;;8.75;;
1128;SDS011;553;51.038;7.216;2023-12-04T06:25:02;13.65;;;8.63;;
1128;SDS011;553;51.038;7.216;2023-12-04T06:27:29;13.90;;;8.90;;
1128;SDS011;553;51.038;7.216;2023-12-04T06:29:56;14.88;;;8.35;;
1128;SDS011;553;51.038;7.216;2023-12-04T06:32:24;17.38;;;9.25;;
1128;SDS011;553;51.038;7.216;2023-12-04T06:34:51;16.25;;;8.93;;
1128;SDS011;553;51.038;7.216;2023-12-04T06:37:18;15.02;;;7.57;;
1128;SDS011;553;51.038;7.216;2023-12-04T06:39:45;12.68;;;7.38;;
1128;SDS011;553;51.038;7.216;2023-12-04T06:42:14;15.80;;;8.15;;
1128;SDS011;553;51.038;7.216;2023-12-04T06:44:42;15.90;;;8.45;;
1128;SDS011;553;51.038;7.216;2023-12-04T06:47:08;12.98;;;8.52;;
1128;SDS011;553;51.038;7.216;2023-12-04T06:49:37;15.38;;;7.50;;
1128;SDS011;553;51.038;7.216;2023-12-04T06:52:05;15.55;;;8.48;;
1128;SDS011;553;51.038;7.216;2023-12-04T06:54:32;13.35;;;7.72;;
1128;SDS011;553;51.038;7.216;2023-12-04T06:56:58;12.23;;;7.70;;
1128;SDS011;553;51.038;7.216;2023-12-04T06:59:25;15.23;;;8.20;;
1128;SDS011;553;51.038;7.216;2023-12-04T07:01:52;13.02;;;7.35;;
1128;SDS011;553;51.038;7.216;2023-12-04T07:04:19;17.77;;;8.57;;
1128;SDS011;553;51.038;7.216;2023-12-04T07:06:48;11.65;;;7.90;;
1128;SDS011;553;51.038;7.216;2023-12-04T07:09:15;12.57;;;7.65;;
1128;SDS011;553;51.038;7.216;2023-12-04T07:11:46;11.77;;;6.32;;
1128;SDS011;553;51.038;7.216;2023-12-04T07:14:13;11.35;;;7.72;;
1128;SDS011;553;51.038;7.216;2023-12-04T07:16:40;14.45;;;8.57;;
1128;SDS011;553;51.038;7.216;2023-12-04T07:19:08;11.38;;;6.90;;
1128;SDS011;553;51.038;7.216;2023-12-04T07:21:36;12.30;;;8.00;;
1128;SDS011;553;51.038;7.216;2023-12-04T07:24:04;10.90;;;5.97;;
1128;SDS011;553;51.038;7.216;2023-12-04T07:26:32;13.98;;;8.55;;
1128;SDS011;553;51.038;7.216;2023-12-04T07:29:00;10.73;;;6.25;;
1128;SDS011;553;51.038;7.216;2023-12-04T07:31:27;12.07;;;6.80;;
1128;SDS011;553;51.038;7.216;2023-12-04T07:33:54;11.90;;;6.70;;
1128;SDS011;553;51.038;7.216;2023-12-04T07:36:21;13.60;;;7.50;;
1128;SDS011;553;51.038;7.216;2023-12-04T07:38:48;14.93;;;9.25;;
1128;SDS011;553;51.038;7.216;2023-12-04T07:41:15;13.27;;;8.65;;
1128;SDS011;553;51.038;7.216;2023-12-04T07:43:43;14.48;;;7.43;;
1128;SDS011;553;51.038;7.216;2023-12-04T07:46:10;9.10;;;5.57;;
1128;SDS011;553;51.038;7.216;2023-12-04T07:48:37;11.57;;;7.20;;
1128;SDS011;553;51.038;7.216;2023-12-04T07:51:05;12.18;;;6.50;;
1128;SDS011;553;51.038;7.216;2023-12-04T07:53:33;8.68;;;5.53;;
1128;SDS011;553;51.038;7.216;2023-12-04T07:56:01;8.65;;;5.90;;
1128;SDS011;553;51.038;7.216;2023-12-04T07:58:30;13.02;;;7.22;;
1128;SDS011;553;51.038;7.216;2023-12-04T08:00:57;15.90;;;7.38;;
1128;SDS011;553;51.038;7.216;2023-12-04T08:03:25;11.32;;;7.53;;
1128;SDS011;553;51.038;7.216;2023-12-04T08:05:53;9.75;;;6.10;;
1128;SDS011;553;51.038;7.216;2023-12-04T08:08:20;12.27;;;6.72;;
1128;SDS011;553;51.038;7.216;2023-12-04T08:10:47;9.43;;;6.10;;
1128;SDS011;553;51.038;7.216;2023-12-04T08:13:14;10.82;;;7.18;;
1128;SDS011;553;51.038;7.216;2023-12-04T08:15:42;11.75;;;6.50;;
1128;SDS011;553;51.038;7.216;2023-12-04T08:18:09;10.15;;;5.88;;
1128;SDS011;553;51.038;7.216;2023-12-04T08:20:36;11.32;;;6.50;;
1128;SDS011;553;51.038;7.216;2023-12-04T08:23:06;11.60;;;6.18;;
1128;SDS011;553;51.038;7.216;2023-12-04T08:25:33;10.98;;;5.75;;
1128;SDS011;553;51.038;7.216;2023-12-04T08:28:02;8.02;;;5.25;;
1128;SDS011;553;51.038;7.216;2023-12-04T08:30:29;10.80;;;6.38;;
1128;SDS011;553;51.038;7.216;2023-12-04T08:32:56;10.30;;;5.45;;
1128;SDS011;553;51.038;7.216;2023-12-04T08:35:23;9.05;;;5.75;;
1128;SDS011;553;51.038;7.216;2023-12-04T08:37:50;9.95;;;6.20;;
1128;SDS011;553;51.038;7.216;2023-12-04T08:40:17;10.75;;;5.90;;
1128;SDS011;553;51.038;7.216;2023-12-04T08:42:44;12.05;;;6.00;;
1128;SDS011;553;51.038;7.216;2023-12-04T08:45:11;25.75;;;12.85;;
1128;SDS011;553;51.038;7.216;2023-12-04T08:47:38;34.72;;;16.65;;
1128;SDS011;553;51.038;7.216;2023-12-04T08:50:06;16.05;;;8.55;;
1128;SDS011;553;51.038;7.216;2023-12-04T08:52:33;32.80;;;16.35;;
1128;SDS011;553;51.038;7.216;2023-12-04T08:55:00;12.52;;;7.20;;
1128;SDS011;553;51.038;7.216;2023-12-04T08:57:28;14.60;;;9.25;;
1128;SDS011;553;51.038;7.216;2023-12-04T08:59:54;11.05;;;6.38;;
1128;SDS011;553;51.038;7.216;2023-12-04T09:02:21;11.80;;;6.53;;
1128;SDS011;553;51.038;7.216;2023-12-04T09:04:48;13.93;;;7.97;;
1128;SDS011;553;51.038;7.216;2023-12-04T09:07:15;10.77;;;6.75;;
1128;SDS011;553;51.038;7.216;2023-12-04T09:09:45;13.93;;;7.10;;
1128;SDS011;553;51.038;7.216;2023-12-04T09:12:12;9.57;;;5.93;;
1128;SDS011;553;51.038;7.216;2023-12-04T09:14:39;11.80;;;6.88;;
1128;SDS011;553;51.038;7.216;2023-12-04T09:17:06;12.27;;;7.15;;
1128;SDS011;553;51.038;7.216;2023-12-04T09:19:34;12.50;;;6.68;;
1128;SDS011;553;51.038;7.216;2023-12-04T09:22:01;10.80;;;6.20;;
1128;SDS011;553;51.038;7.216;2023-12-04T09:24:42;9.30;;;5.80;;
1128;SDS011;553;51.038;7.216;2023-12-04T09:27:11;12.77;;;6.78;;
1128;SDS011;553;51.038;7.216;2023-12-04T09:29:38;9.75;;;5.28;;
1128;SDS011;553;51.038;7.216;2023-12-04T09:32:04;11.88;;;6.90;;
1128;SDS011;553;51.038;7.216;2023-12-04T09:34:32;9.60;;;6.05;;
1128;SDS011;553;51.038;7.216;2023-12-04T09:36:59;8.70;;;5.43;;
1128;SDS011;553;51.038;7.216;2023-12-04T09:39:36;10.38;;;6.15;;
1128;SDS011;553;51.038;7.216;2023-12-04T09:42:02;11.73;;;6.35;;
1128;SDS011;553;51.038;7.216;2023-12-04T09:44:30;10.48;;;6.22;;
1128;SDS011;553;51.038;7.216;2023-12-04T09:46:57;11.05;;;7.00;;
1128;SDS011;553;51.038;7.216;2023-12-04T09:49:26;9.00;;;5.50;;
1128;SDS011;553;51.038;7.216;2023-12-04T09:51:57;11.85;;;7.15;;
1128;SDS011;553;51.038;7.216;2023-12-04T09:54:25;14.75;;;8.20;;
1128;SDS011;553;51.038;7.216;2023-12-04T09:56:52;11.40;;;6.72;;
1128;SDS011;553;51.038;7.216;2023-12-04T09:59:19;15.43;;;7.78;;
1128;SDS011;553;51.038;7.216;2023-12-04T10:01:50;10.73;;;7.40;;
1128;SDS011;553;51.038;7.216;2023-12-04T10:04:17;10.50;;;7.15;;
1128;SDS011;553;51.038;7.216;2023-12-04T10:06:45;12.00;;;6.50;;
1128;SDS011;553;51.038;7.216;2023-12-04T10:09:12;12.88;;;7.72;;
1128;SDS011;553;51.038;7.216;2023-12-04T10:11:41;9.75;;;5.70;;
1128;SDS011;553;51.038;7.216;2023-12-04T10:14:21;11.77;;;6.35;;
1128;SDS011;553;51.038;7.216;2023-12-04T10:16:48;9.00;;;5.47;;
1128;SDS011;553;51.038;7.216;2023-12-04T10:19:19;8.73;;;6.00;;
1128;SDS011;553;51.038;7.216;2023-12-04T10:21:50;11.13;;;6.43;;
1128;SDS011;553;51.038;7.216;2023-12-04T10:24:26;10.57;;;6.93;;
1128;SDS011;553;51.038;7.216;2023-12-04T10:26:59;10.07;;;6.25;;
1128;SDS011;553;51.038;7.216;2023-12-04T10:29:26;10.00;;;6.53;;
1128;SDS011;553;51.038;7.216;2023-12-04T10:31:58;8.13;;;5.00;;
1128;SDS011;553;51.038;7.216;2023-12-04T10:34:27;12.02;;;6.38;;
1128;SDS011;553;51.038;7.216;2023-12-04T10:36:53;9.50;;;5.80;;
1128;SDS011;553;51.038;7.216;2023-12-04T10:39:22;10.52;;;5.47;;
1128;SDS011;553;51.038;7.216;2023-12-04T10:41:58;11.45;;;6.00;;
1128;SDS011;553;51.038;7.216;2023-12-04T10:44:27;10.80;;;6.05;;
1128;SDS011;553;51.038;7.216;2023-12-04T10:46:55;12.00;;;7.07;;
1128;SDS011;553;51.038;7.216;2023-12-04T10:49:28;9.23;;;7.35;;
1128;SDS011;553;51.038;7.216;2023-12-04T10:51:55;10.18;;;6.07;;
1128;SDS011;553;51.038;7.216;2023-12-04T10:54:24;11.35;;;6.45;;
1128;SDS011;553;51.038;7.216;2023-12-04T10:56:51;10.98;;;6.45;;
1128;SDS011;553;51.038;7.216;2023-12-04T10:59:21;11.95;;;7.30;;
1128;SDS011;553;51.038;7.216;2023-12-04T11:01:53;11.02;;;6.82;;
1128;SDS011;553;51.038;7.216;2023-12-04T11:04:23;9.48;;;6.20;;
1128;SDS011;553;51.038;7.216;2023-12-04T11:06:53;10.38;;;7.10;;
1128;SDS011;553;51.038;7.216;2023-12-04T11:09:21;10.20;;;7.03;;
1128;SDS011;553;51.038;7.216;2023-12-04T11:11:53;12.55;;;7.30;;
1128;SDS011;553;51.038;7.216;2023-12-04T11:14:27;10.77;;;6.18;;
1128;SDS011;553;51.038;7.216;2023-12-04T11:17:04;13.90;;;7.78;;
1128;SDS011;553;51.038;7.216;2023-12-04T11:19:38;11.23;;;7.15;;
1128;SDS011;553;51.038;7.216;2023-12-04T11:22:12;12.18;;;6.80;;
1128;SDS011;553;51.038;7.216;2023-12-04T11:24:41;11.88;;;6.30;;
1128;SDS011;553;51.038;7.216;2023-12-04T11:27:08;13.57;;;6.95;;
1128;SDS011;553;51.038;7.216;2023-12-04T11:29:35;13.13;;;7.20;;
1128;SDS011;553;51.038;7.216;2023-12-04T11:32:07;12.85;;;7.30;;
1128;SDS011;553;51.038;7.216;2023-12-04T11:34:35;12.43;;;7.50;;
1128;SDS011;553;51.038;7.216;2023-12-04T11:37:03;11.68;;;6.65;;
1128;SDS011;553;51.038;7.216;2023-12-04T11:39:29;10.65;;;6.70;;
1128;SDS011;553;51.038;7.216;2023-12-04T11:42:01;12.35;;;8.02;;
1128;SDS011;553;51.038;7.216;2023-12-04T11:44:32;13.38;;;8.15;;
1128;SDS011;553;51.038;7.216;2023-12-04T11:47:04;12.23;;;8.25;;
1128;SDS011;553;51.038;7.216;2023-12-04T11:49:32;13.23;;;7.43;;
1128;SDS011;553;51.038;7.216;2023-12-04T11:52:00;12.43;;;7.00;;
1128;SDS011;553;51.038;7.216;2023-12-04T11:57:25;15.52;;;7.80;;
1128;SDS011;553;51.038;7.216;2023-12-04T12:05:35;14.60;;;8.88;;
1128;SDS011;553;51.038;7.216;2023-12-04T12:08:05;16.70;;;9.35;;
1128;SDS011;553;51.038;7.216;2023-12-04T12:10:35;16.98;;;8.70;;
1128;SDS011;553;51.038;7.216;2023-12-04T12:13:01;12.10;;;7.38;;
1128;SDS011;553;51.038;7.216;2023-12-04T12:15:28;15.90;;;9.75;;
1128;SDS011;553;51.038;7.216;2023-12-04T12:17:55;32.25;;;18.55;;
1128;SDS011;553;51.038;7.216;2023-12-04T12:20:22;26.85;;;14.88;;
1128;SDS011;553;51.038;7.216;2023-12-04T12:22:49;23.92;;;12.85;;
1128;SDS011;553;51.038;7.216;2023-12-04T12:25:17;17.98;;;9.65;;
1128;SDS011;553;51.038;7.216;2023-12-04T12:27:44;15.02;;;8.60;;
1128;SDS011;553;51.038;7.216;2023-12-04T12:30:13;16.63;;;7.90;;
1128;SDS011;553;51.038;7.216;2023-12-04T12:32:40;13.60;;;7.97;;
1128;SDS011;553;51.038;7.216;2023-12-04T12:35:07;16.33;;;8.90;;
1128;SDS011;553;51.038;7.216;2023-12-04T12:37:35;16.67;;;9.15;;
1128;SDS011;553;51.038;7.216;2023-12-04T12:40:03;18.13;;;8.77;;
1128;SDS011;553;51.038;7.216;2023-12-04T12:42:31;12.60;;;8.40;;
1128;SDS011;553;51.038;7.216;2023-12-04T12:45:00;15.25;;;9.63;;
1128;SDS011;553;51.038;7.216;2023-12-04T12:47:29;13.85;;;7.85;;
1128;SDS011;553;51.038;7.216;2023-12-04T12:49:56;13.70;;;8.50;;
1128;SDS011;553;51.038;7.216;2023-12-04T12:52:23;16.02;;;8.52;;
1128;SDS011;553;51.038;7.216;2023-12-04T12:54:49;15.90;;;8.40;;
1128;SDS011;553;51.038;7.216;2023-12-04T12:57:18;13.48;;;8.20;;
1128;SDS011;553;51.038;7.216;2023-12-04T12:59:45;14.82;;;8.73;;
1128;SDS011;553;51.038;7.216;2023-12-04T13:02:12;12.18;;;7.80;;
1128;SDS011;553;51.038;7.216;2023-12-04T13:04:40;13.90;;;7.90;;
1128;SDS011;553;51.038;7.216;2023-12-04T13:07:08;17.50;;;9.45;;
1128;SDS011;553;51.038;7.216;2023-12-04T13:09:36;13.90;;;7.90;;
1128;SDS011;553;51.038;7.216;2023-12-04T13:12:06;15.23;;;8.75;;
1128;SDS011;553;51.038;7.216;2023-12-04T13:14:35;13.88;;;7.90;;
1128;SDS011;553;51.038;7.216;2023-12-04T13:17:03;14.38;;;8.20;;
1128;SDS011;553;51.038;7.216;2023-12-04T13:19:30;13.52;;;7.50;;
1128;SDS011;553;51.038;7.216;2023-12-04T13:22:01;13.77;;;8.05;;
1128;SDS011;553;51.038;7.216;2023-12-04T13:24:28;14.35;;;8.52;;
1128;SDS011;553;51.038;7.216;2023-12-04T13:26:54;15.30;;;8.88;;
1128;SDS011;553;51.038;7.216;2023-12-04T13:29:21;11.80;;;7.43;;
1128;SDS011;553;51.038;7.216;2023-12-04T13:31:49;17.50;;;10.23;;
1128;SDS011;553;51.038;7.216;2023-12-04T13:34:17;15.13;;;7.93;;
1128;SDS011;553;51.038;7.216;2023-12-04T13:36:44;12.95;;;7.88;;
1128;SDS011;553;51.038;7.216;2023-12-04T13:39:11;15.80;;;8.82;;
1128;SDS011;553;51.038;7.216;2023-12-04T13:41:43;16.92;;;8.77;;
1128;SDS011;553;51.038;7.216;2023-12-04T13:44:30;15.98;;;8.50;;
1128;SDS011;553;51.038;7.216;2023-12-04T13:46:57;15.93;;;7.85;;
1128;SDS011;553;51.038;7.216;2023-12-04T13:49:23;14.50;;;8.60;;
1128;SDS011;553;51.038;7.216;2023-12-04T13:51:50;15.30;;;8.02;;
1128;SDS011;553;51.038;7.216;2023-12-04T13:54:19;12.60;;;7.85;;
1128;SDS011;553;51.038;7.216;2023-12-04T13:56:48;14.13;;;6.63;;
1128;SDS011;553;51.038;7.216;2023-12-04T13:59:20;12.57;;;7.90;;
1128;SDS011;553;51.038;7.216;2023-12-04T14:01:48;16.95;;;8.75;;
1128;SDS011;553;51.038;7.216;2023-12-04T14:04:17;13.18;;;8.13;;
1128;SDS011;553;51.038;7.216;2023-12-04T14:06:44;13.65;;;7.50;;
1128;SDS011;553;51.038;7.216;2023-12-04T14:09:12;13.38;;;8.02;;
1128;SDS011;553;51.038;7.216;2023-12-04T14:11:43;14.88;;;8.70;;
1128;SDS011;553;51.038;7.216;2023-12-04T14:14:11;14.80;;;8.77;;
1128;SDS011;553;51.038;7.216;2023-12-04T14:16:39;13.00;;;8.50;;
1128;SDS011;553;51.038;7.216;2023-12-04T14:19:08;15.40;;;7.18;;
1128;SDS011;553;51.038;7.216;2023-12-04T14:21:35;14.38;;;7.43;;
1128;SDS011;553;51.038;7.216;2023-12-04T14:24:02;12.18;;;8.25;;
1128;SDS011;553;51.038;7.216;2023-12-04T14:26:28;14.00;;;7.82;;
1128;SDS011;553;51.038;7.216;2023-12-04T14:28:55;13.15;;;7.47;;
1128;SDS011;553;51.038;7.216;2023-12-04T14:31:23;13.65;;;7.82;;
1128;SDS011;553;51.038;7.216;2023-12-04T14:33:50;11.60;;;7.68;;
1128;SDS011;553;51.038;7.216;2023-12-04T14:36:18;15.52;;;8.73;;
1128;SDS011;553;51.038;7.216;2023-12-04T14:38:45;14.10;;;9.15;;
1128;SDS011;553;51.038;7.216;2023-12-04T14:41:12;11.10;;;7.18;;
1128;SDS011;553;51.038;7.216;2023-12-04T14:43:38;13.50;;;8.48;;
1128;SDS011;553;51.038;7.216;2023-12-04T14:46:07;10.43;;;6.22;;
1128;SDS011;553;51.038;7.216;2023-12-04T14:48:38;10.48;;;6.28;;
1128;SDS011;553;51.038;7.216;2023-12-04T14:51:07;8.65;;;5.57;;
1128;SDS011;553;51.038;7.216;2023-12-04T14:53:40;13.70;;;6.75;;
1128;SDS011;553;51.038;7.216;2023-12-04T14:56:17;12.75;;;7.78;;
1128;SDS011;553;51.038;7.216;2023-12-04T14:58:44;10.63;;;6.45;;
1128;SDS011;553;51.038;7.216;2023-12-04T15:01:12;9.02;;;5.90;;
1128;SDS011;553;51.038;7.216;2023-12-04T15:04:17;13.57;;;6.43;;
1128;SDS011;553;51.038;7.216;2023-12-04T15:07:11;7.18;;;4.78;;
1128;SDS011;553;51.038;7.216;2023-12-04T15:09:40;14.13;;;5.10;;
1128;SDS011;553;51.038;7.216;2023-12-04T15:12:10;10.40;;;5.68;;
1128;SDS011;553;51.038;7.216;2023-12-04T15:15:00;8.32;;;5.68;;
1128;SDS011;553;51.038;7.216;2023-12-04T15:17:41;7.20;;;4.72;;
1128;SDS011;553;51.038;7.216;2023-12-04T15:20:17;8.93;;;5.40;;
1128;SDS011;553;51.038;7.216;2023-12-04T15:22:58;8.95;;;5.65;;
1128;SDS011;553;51.038;7.216;2023-12-04T15:25:25;9.63;;;5.60;;
1128;SDS011;553;51.038;7.216;2023-12-04T15:27:52;7.97;;;5.53;;
1128;SDS011;553;51.038;7.216;2023-12-04T15:30:19;8.05;;;5.00;;